Time;durP1;ratioP1;P1;durP2;ratioP2;P2;SDS_P1;SDS_P2;PMS_P1;PMS_P2;Temp;Humidity;BMP_temperature;BMP_pressure;BME280_temperature;BME280_humidity;BME280_pressure;Samples;Min_cycle;Max_cycle;Signal;HPM_P1;HPM_P2
2022/06/13 00:04:11;;;;;;;16.27;7.40;;;;;;;8.58;95.09;101915.69;10485783;28;20505;-79
2022/06/13 00:09:12;;;;;;;16.75;8.02;;;;;;;8.48;94.93;101919.28;10467829;28;20044;-79
2022/06/13 00:14:13;;;;;;;14.02;7.90;;;;;;;8.36;95.71;101920.22;10466989;28;20525;-79
2022/06/13 00:19:13;;;;;;;14.23;7.97;;;;;;;8.34;95.75;101911.38;10466622;28;20449;-80
2022/06/13 00:24:14;;;;;;;12.68;5.72;;;;;;;8.28;95.93;101903.09;10468391;28;20041;-79
2022/06/13 00:29:14;;;;;;;13.27;6.15;;;;;;;8.32;96.84;101896.38;10466694;28;20068;-80
2022/06/13 00:34:15;;;;;;;18.17;6.93;;;;;;;8.20;96.52;101891.19;10484135;28;20032;-79
2022/06/13 00:39:15;;;;;;;11.50;6.20;;;;;;;8.15;97.64;101898.66;10449087;28;20033;-80
2022/06/13 00:44:22;;;;;;;12.90;6.35;;;;;;;8.10;98.12;101897.41;10484047;28;20052;-80
2022/06/13 00:49:27;;;;;;;13.93;6.18;;;;;;;8.04;97.90;101889.13;10483218;28;20455;-80
2022/06/13 00:54:28;;;;;;;11.98;5.00;;;;;;;7.95;98.62;101889.38;10466609;28;20135;-80
2022/06/13 00:59:29;;;;;;;15.77;7.18;;;;;;;7.91;98.29;101893.44;10466406;28;20051;-80
2022/06/13 01:04:30;;;;;;;13.30;6.80;;;;;;;7.82;98.82;101895.34;10465458;28;20127;-80
2022/06/13 01:15:21;;;;;;;11.70;5.60;;;;;;;7.84;100.00;101891.16;10453689;28;20131;-79
2022/06/13 01:20:40;;;;;;;14.85;6.30;;;;;;;7.99;100.00;101890.47;10420973;28;20041;-80
2022/06/13 01:25:55;;;;;;;12.68;7.40;;;;;;;7.95;100.00;101881.53;10465513;28;20043;-79
2022/06/13 01:31:24;;;;;;;12.50;7.05;;;;;;;7.90;99.21;101898.53;10482839;28;20044;-79
2022/06/13 01:36:41;;;;;;;11.35;6.90;;;;;;;7.76;98.87;101887.97;10420904;28;20028;-80
2022/06/13 01:41:48;;;;;;;13.52;7.75;;;;;;;7.67;99.79;101899.41;10449127;28;20051;-80
2022/06/13 01:46:58;;;;;;;8.93;5.70;;;;;;;7.62;99.12;101899.06;10464859;28;20048;-80
2022/06/13 01:52:07;;;;;;;11.90;6.05;;;;;;;7.61;100.00;101894.63;10407342;28;20041;-80
2022/06/13 01:57:33;;;;;;;11.68;7.00;;;;;;;7.66;100.00;101885.47;10439992;28;20048;-79
2022/06/13 02:02:56;;;;;;;13.02;7.05;;;;;;;7.69;100.00;101884.78;10465239;28;20090;-79
2022/06/13 02:08:01;;;;;;;14.68;7.03;;;;;;;7.79;100.00;101871.66;10465103;28;20140;-80
2022/06/13 02:13:06;;;;;;;15.88;9.88;;;;;;;7.89;100.00;101868.94;10422872;28;20036;-80
2022/06/13 02:18:14;;;;;;;16.58;7.07;;;;;;;8.07;100.00;101865.88;10463610;28;20146;-79
2022/06/13 02:23:20;;;;;;;12.60;7.18;;;;;;;8.20;100.00;101878.16;10424168;28;20037;-79
2022/06/13 02:28:25;;;;;;;13.98;8.25;;;;;;;8.29;100.00;101868.38;10407183;28;20045;-79
2022/06/13 02:33:31;;;;;;;14.02;8.02;;;;;;;8.38;100.00;101866.44;10446126;28;20439;-79
2022/06/13 02:38:36;;;;;;;15.15;9.40;;;;;;;8.55;100.00;101858.03;10413834;28;20381;-79
2022/06/13 02:43:43;;;;;;;24.25;8.65;;;;;;;8.69;100.00;101862.53;10433123;28;20553;-79
2022/06/13 02:49:00;;;;;;;12.13;7.60;;;;;;;8.89;100.00;101847.38;10471141;28;20115;-79
2022/06/13 02:54:03;;;;;;;14.32;7.38;;;;;;;9.08;100.00;101868.78;10404633;28;20128;-79
2022/06/13 02:59:33;;;;;;;11.88;6.05;;;;;;;9.27;100.00;101859.59;10372520;28;20061;-78
2022/06/13 03:04:46;;;;;;;13.02;6.85;;;;;;;9.34;98.64;101854.00;10444709;28;20064;-78
2022/06/13 03:09:49;;;;;;;12.13;6.40;;;;;;;9.46;98.59;101850.41;10453162;28;20052;-78
2022/06/13 03:15:11;;;;;;;12.48;6.63;;;;;;;9.55;98.16;101843.19;10427262;28;20040;-79
2022/06/13 03:20:24;;;;;;;14.77;7.28;;;;;;;9.54;97.98;101838.75;10447058;28;22113;-78
2022/06/13 03:25:27;;;;;;;;;;;;;;;9.56;97.77;101847.59;10470348;28;20028;-78
2022/06/13 03:30:30;;;;;;;18.92;7.18;;;;;;;9.63;98.21;101848.94;10468672;28;20276;-78
2022/06/13 03:35:31;;;;;;;12.70;6.68;;;;;;;9.69;98.38;101862.44;10469178;28;20036;-79
2022/06/13 03:40:31;;;;;;;9.38;5.07;;;;;;;9.78;98.78;101877.81;10451877;28;20071;-79
2022/06/13 03:45:36;;;;;;;11.65;6.82;;;;;;;9.89;98.92;101883.78;10468069;28;20041;-80
2022/06/13 03:50:53;;;;;;;11.73;6.50;;;;;;;10.00;99.59;101880.16;10451031;28;20042;-80
2022/06/13 03:55:53;;;;;;;14.75;7.30;;;;;;;10.07;99.88;101890.22;10426363;28;20045;-80
2022/06/13 04:01:16;;;;;;;13.45;7.10;;;;;;;10.14;100.00;101895.06;10442808;28;20132;-80
2022/06/13 04:06:38;;;;;;;13.35;7.97;;;;;;;10.18;100.00;101885.69;10470500;28;20384;-80
2022/06/13 04:11:58;;;;;;;18.23;9.38;;;;;;;10.15;100.00;101895.94;10421933;28;20128;-79
2022/06/13 04:17:37;;;;;;;16.92;9.38;;;;;;;10.18;100.00;101888.28;10466854;28;20392;-80
2022/06/13 04:22:47;;;;;;;18.00;11.32;;;;;;;10.16;100.00;101889.03;10422149;28;20073;-80
2022/06/13 04:28:01;;;;;;;19.52;9.35;;;;;;;10.21;100.00;101890.22;10466569;28;20396;-80
2022/06/13 04:33:17;;;;;;;17.75;9.75;;;;;;;10.35;100.00;101881.56;10465945;28;20036;-80
2022/06/13 04:38:18;;;;;;;21.48;9.65;;;;;;;10.46;100.00;101890.13;10449300;28;20032;-80
2022/06/13 04:43:20;;;;;;;21.20;12.27;;;;;;;10.54;100.00;101894.13;10425504;28;20534;-79
2022/06/13 04:48:21;;;;;;;16.45;9.75;;;;;;;10.65;100.00;101901.78;10384803;28;20034;-79
2022/06/13 04:53:24;;;;;;;21.17;10.27;;;;;;;10.76;100.00;101900.75;10463531;28;20455;-79
2022/06/13 04:58:29;;;;;;;21.90;11.57;;;;;;;10.86;100.00;101903.13;10435158;28;20090;-79
2022/06/13 05:03:31;;;;;;;21.08;9.93;;;;;;;11.14;100.00;101898.75;10438314;28;20080;-78
2022/06/13 05:08:34;;;;;;;19.55;8.70;;;;;;;11.46;98.46;101903.31;10434536;28;20045;-79
2022/06/13 05:13:35;;;;;;;21.98;9.85;;;;;;;11.87;97.69;101911.84;10426949;28;20052;-79
2022/06/13 05:18:56;;;;;;;19.45;8.85;;;;;;;12.01;94.92;101917.94;10425900;28;20440;-80
2022/06/13 05:24:06;;;;;;;16.23;9.10;;;;;;;12.48;93.84;101912.72;10442364;28;20041;-80
2022/06/13 05:29:09;;;;;;;16.98;9.07;;;;;;;12.58;92.57;101922.91;10464983;28;20041;-79
2022/06/13 05:34:17;;;;;;;16.85;9.15;;;;;;;12.69;91.74;101927.88;10464580;28;20056;-79
2022/06/13 05:39:17;;;;;;;16.67;10.10;;;;;;;12.73;92.19;101929.84;10448934;28;20387;-79
2022/06/13 05:44:18;;;;;;;19.55;8.68;;;;;;;12.73;91.74;101928.13;10448168;28;20045;-79
2022/06/13 05:49:19;;;;;;;19.23;10.70;;;;;;;12.92;91.30;101929.16;10478055;28;20393;-78
2022/06/13 05:54:19;;;;;;;24.27;10.10;;;;;;;13.21;92.40;101927.22;10425558;28;20045;-80
2022/06/13 05:59:20;;;;;;;19.73;9.73;;;;;;;13.88;88.45;101933.31;10480398;28;20036;-80
2022/06/13 06:04:20;;;;;;;11.38;7.50;;;;;;;14.23;86.99;101935.13;10466740;28;20068;-80
2022/06/13 06:09:21;;;;;;;17.13;9.10;;;;;;;14.61;85.46;101945.69;10472326;28;20135;-77
2022/06/13 06:14:21;;;;;;;14.18;9.07;;;;;;;15.82;79.89;101943.31;10453264;28;20040;-78
2022/06/13 06:19:22;;;;;;;17.50;9.05;;;;;;;16.22;77.89;101948.50;10469538;28;20032;-77
2022/06/13 06:24:22;;;;;;;18.50;9.75;;;;;;;15.86;80.13;101952.28;10469717;28;20399;-76
2022/06/13 06:29:24;;;;;;;19.52;9.57;;;;;;;16.60;79.36;101949.19;10490386;28;20488;-79
2022/06/13 06:34:24;;;;;;;30.73;9.63;;;;;;;18.79;70.10;101949.88;10472948;28;20105;-79
2022/06/13 06:39:25;;;;;;;17.52;8.75;;;;;;;18.41;68.25;101949.56;10494112;28;20622;-77
2022/06/13 06:44:26;;;;;;;15.15;7.32;;;;;;;19.43;66.24;101956.19;10512669;28;20032;-78
2022/06/13 06:49:26;;;;;;;15.33;7.47;;;;;;;19.25;64.76;101960.13;10485486;28;20182;-78
2022/06/13 06:59:55;;;;;;;13.73;8.57;;;;;;;21.24;59.28;101951.78;10431730;28;20033;-78
2022/06/13 07:05:02;;;;;;;16.15;8.40;;;;;;;21.63;57.56;101961.47;10420470;28;20041;-78
2022/06/13 07:10:03;;;;;;;15.45;7.97;;;;;;;21.98;54.60;101961.22;10464205;28;20032;-78
2022/06/13 07:15:04;;;;;;;22.25;9.43;;;;;;;21.23;54.23;101958.88;10430678;28;20135;-77
2022/06/13 07:20:05;;;;;;;18.90;8.87;;;;;;;20.04;56.98;101964.97;10445711;28;20033;-76
2022/06/13 07:25:08;;;;;;;15.67;6.63;;;;;;;20.33;57.04;101972.78;10428889;28;20030;-77
2022/06/13 07:30:09;;;;;;;17.02;8.02;;;;;;;22.34;53.39;101968.91;10396938;28;20113;-77
2022/06/13 07:35:10;;;;;;;14.57;5.63;;;;;;;22.13;49.31;101968.59;10372417;28;20142;-77
2022/06/13 07:40:11;;;;;;;16.17;4.83;;;;;;;20.46;51.29;101981.94;10452104;28;20166;-77
2022/06/13 07:45:18;;;;;;;16.63;4.63;;;;;;;20.64;51.58;101984.16;10452904;28;21097;-77
2022/06/13 07:50:20;;;;;;;11.48;4.72;;;;;;;19.29;53.62;101999.16;10433864;28;20040;-78
2022/06/13 07:55:22;;;;;;;13.05;4.35;;;;;;;21.45;50.56;101998.34;10445964;28;20036;-78
2022/06/13 08:00:26;;;;;;;13.82;4.88;;;;;;;22.03;48.35;102008.38;10478640;28;20462;-77
2022/06/13 08:05:27;;;;;;;12.65;4.50;;;;;;;23.26;46.05;102003.22;10489479;28;20488;-77
2022/06/13 08:10:28;;;;;;;11.73;3.83;;;;;;;24.15;44.80;102013.16;10512115;28;20052;-77
2022/06/13 08:15:28;;;;;;;8.53;4.00;;;;;;;22.03;47.93;102017.28;10483611;28;20048;-78
2022/06/13 08:20:29;;;;;;;9.07;4.87;;;;;;;20.18;51.82;102029.09;10448213;28;20119;-78
2022/06/13 08:25:31;;;;;;;11.60;4.50;;;;;;;21.32;51.27;102029.16;10487911;28;20395;-78
2022/06/13 08:30:42;;;;;;;12.15;4.47;;;;;;;23.56;45.31;102029.44;10480951;28;20055;-79
2022/06/13 08:35:43;;;;;;;12.70;6.07;;;;;;;21.51;47.71;102028.69;10481318;28;20377;-77
2022/06/13 08:41:04;;;;;;;10.40;5.33;;;;;;;20.33;52.22;102039.25;10506803;28;20046;-77
2022/06/13 08:46:34;;;;;;;8.73;3.63;;;;;;;22.41;48.65;102043.75;10490976;28;20116;-77
2022/06/13 08:51:40;;;;;;;11.68;3.83;;;;;;;25.30;40.19;102043.44;10474016;28;20143;-77
2022/06/13 08:56:40;;;;;;;6.30;2.97;;;;;;;26.78;35.29;102045.56;10472430;28;20128;-78
2022/06/13 09:01:41;;;;;;;7.97;2.73;;;;;;;28.39;34.19;102040.38;10457100;28;20050;-77
2022/06/13 09:06:45;;;;;;;9.27;2.60;;;;;;;25.42;37.38;102051.53;10456424;28;20040;-77
2022/06/13 09:12:02;;;;;;;5.93;2.55;;;;;;;22.51;44.36;102052.81;10457377;28;20617;-77
2022/06/13 09:17:20;;;;;;;13.05;3.50;;;;;;;22.28;45.63;102057.72;10424905;28;20045;-76
2022/06/13 09:22:42;;;;;;;12.13;3.20;;;;;;;23.18;43.27;102062.75;10438720;28;20045;-75
2022/06/13 09:27:50;;;;;;;10.98;3.83;;;;;;;21.66;44.62;102061.88;10424704;28;20032;-77
2022/06/13 09:32:53;;;;;;;7.80;2.60;;;;;;;21.09;43.40;102074.81;10420567;28;20618;-77
2022/06/13 09:38:20;;;;;;;6.20;3.45;;;;;;;21.57;45.15;102067.84;10418210;28;20045;-78
2022/06/13 09:43:33;;;;;;;8.43;3.83;;;;;;;21.51;44.25;102076.63;10444828;28;20041;-78
2022/06/13 09:48:46;;;;;;;6.47;2.97;;;;;;;20.91;45.94;102083.22;10461551;28;20507;-77
2022/06/13 09:53:52;;;;;;;7.15;2.35;;;;;;;22.18;43.53;102075.31;10447637;28;20510;-77
2022/06/13 09:59:08;;;;;;;6.50;2.63;;;;;;;25.73;37.68;102062.41;10448839;28;20045;-79
2022/06/13 10:04:39;;;;;;;7.03;2.65;;;;;;;26.11;36.47;102063.41;10442519;28;20041;-76
2022/06/13 10:10:10;;;;;;;12.00;2.60;;;;;;;26.05;34.98;102068.75;10463421;28;20123;-77
2022/06/13 10:15:49;;;;;;;6.97;2.80;;;;;;;22.69;42.08;102078.00;10457745;28;20123;-78
2022/06/13 10:21:13;;;;;;;7.07;2.72;;;;;;;20.86;44.63;102085.81;10454303;28;20045;-77
2022/06/13 10:26:16;;;;;;;6.70;2.78;;;;;;;20.47;46.78;102075.94;10447006;28;20464;-77
2022/06/13 10:31:34;;;;;;;5.15;1.80;;;;;;;24.02;42.20;102065.63;10458614;28;20048;-79
2022/06/13 10:37:02;;;;;;;7.43;2.28;;;;;;;25.73;36.15;102067.75;10491907;28;20439;-78
2022/06/13 10:42:10;;;;;;;3.97;1.73;;;;;;;23.10;39.31;102080.41;10440464;28;20040;-79
2022/06/13 10:47:46;;;;;;;6.03;4.20;;;;;;;23.45;37.07;102088.06;10430455;28;20041;-76
2022/06/13 10:52:49;;;;;;;8.27;1.95;;;;;;;22.63;39.04;102089.50;10450190;28;20045;-77
2022/06/13 10:57:52;;;;;;;5.28;2.10;;;;;;;21.59;43.36;102091.88;10468306;28;20040;-76
2022/06/13 11:03:12;;;;;;;6.18;1.63;;;;;;;23.83;43.22;102086.78;10478661;28;20561;-77
2022/06/13 11:08:13;;;;;;;5.03;2.08;;;;;;;24.54;39.39;102094.66;10445772;28;20051;-75
2022/06/13 11:13:15;;;;;;;4.60;1.30;;;;;;;25.88;37.39;102085.69;10433357;28;20063;-77
2022/06/13 11:23:54;;;;;;;7.65;1.70;;;;;;;27.29;32.62;102086.66;10414884;28;19925;-76
2022/06/13 11:28:55;;;;;;;5.55;1.42;;;;;;;26.34;35.17;102084.03;10470346;28;20038;-78
2022/06/13 11:33:55;;;;;;;5.37;1.57;;;;;;;27.75;33.69;102077.56;10389854;28;20526;-78
2022/06/13 11:39:03;;;;;;;3.77;1.43;;;;;;;27.74;31.24;102073.94;10461231;28;20511;-77
2022/06/13 11:44:06;;;;;;;5.85;2.25;;;;;;;27.65;31.32;102074.91;10394233;28;20053;-78
2022/06/13 11:49:16;;;;;;;5.28;1.13;;;;;;;27.20;30.97;102082.22;10481470;28;20446;-77
2022/06/13 11:54:39;;;;;;;5.97;2.22;;;;;;;25.48;33.95;102081.06;10502263;28;20074;-77
2022/06/13 11:59:49;;;;;;;4.43;1.73;;;;;;;22.82;36.85;102095.13;10425932;28;20041;-78
2022/06/13 12:04:55;;;;;;;3.50;1.35;;;;;;;22.29;38.41;102081.75;10410209;28;20036;-77
2022/06/13 12:09:57;;;;;;;5.68;1.77;;;;;;;21.74;41.64;102094.00;10416676;28;20041;-77
2022/06/13 12:14:58;;;;;;;10.50;3.55;;;;;;;22.35;37.96;102096.06;10411420;28;20043;-78
2022/06/13 12:20:03;;;;;;;4.30;2.35;;;;;;;24.58;37.13;102082.22;10423560;28;20036;-77
2022/06/13 12:25:32;;;;;;;7.88;1.90;;;;;;;25.48;32.16;102099.81;10500455;28;20043;-76
2022/06/13 12:30:35;;;;;;;2.55;1.60;;;;;;;26.27;31.37;102095.66;10504343;28;20053;-77
2022/06/13 12:35:36;;;;;;;4.45;1.48;;;;;;;26.10;32.90;102096.50;10496163;28;20511;-76
2022/06/13 12:40:40;;;;;;;3.37;1.00;;;;;;;26.41;32.83;102085.84;10502630;28;20052;-77
2022/06/13 12:46:12;;;;;;;8.70;2.78;;;;;;;26.53;34.05;102101.03;10487059;28;20054;-76
2022/06/13 12:51:15;;;;;;;4.30;1.40;;;;;;;25.10;33.42;102097.78;10399557;28;20068;-77
2022/06/13 12:56:51;;;;;;;4.63;1.25;;;;;;;22.02;38.52;102108.78;10402612;28;20470;-76
2022/06/13 13:02:14;;;;;;;2.65;1.30;;;;;;;22.63;41.28;102104.56;10427234;28;20036;-75
2022/06/13 13:07:52;;;;;;;2.63;1.45;;;;;;;23.47;36.35;102090.78;10424236;28;20124;-75
2022/06/13 13:13:05;;;;;;;5.47;1.52;;;;;;;22.74;37.55;102097.66;10417034;28;20686;-78
2022/06/13 13:18:13;;;;;;;6.45;2.50;;;;;;;22.14;41.51;102101.03;10450783;28;20033;-77
2022/06/13 13:23:35;;;;;;;8.90;2.25;;;;;;;23.57;39.67;102114.06;10467029;28;20047;-76
2022/06/13 13:28:44;;;;;;;2.20;1.00;;;;;;;25.20;33.44;102104.13;10443968;28;20045;-77
2022/06/13 13:34:19;;;;;;;2.90;0.90;;;;;;;25.41;33.94;102100.66;10431145;28;20053;-77
2022/06/13 13:39:40;;;;;;;13.13;1.85;;;;;;;25.34;34.83;102085.44;10495930;28;20041;-76
2022/06/13 13:45:03;;;;;;;3.58;1.15;;;;;;;25.56;33.64;102118.63;10446921;28;20047;-77
2022/06/13 13:50:06;;;;;;;3.30;1.17;;;;;;;25.93;31.57;102108.06;10415150;28;20410;-77
2022/06/13 13:55:17;;;;;;;2.75;1.63;;;;;;;26.24;32.44;102104.56;10396961;28;20040;-76
2022/06/13 14:01:08;;;;;;;4.30;1.08;;;;;;;25.12;35.00;102105.84;10410410;28;20045;-77
2022/06/13 14:06:18;;;;;;;4.45;1.58;;;;;;;24.19;34.21;102095.19;10389346;28;20033;-78
2022/06/13 14:11:19;;;;;;;6.60;1.67;;;;;;;24.09;34.63;102106.69;10419640;28;20423;-76
2022/06/13 14:16:23;;;;;;;4.82;2.08;;;;;;;22.26;36.95;102100.34;10459554;28;20068;-76
2022/06/13 14:21:31;;;;;;;4.40;1.30;;;;;;;22.93;37.05;102101.53;10442112;28;20124;-76
2022/06/13 14:26:42;;;;;;;3.38;1.48;;;;;;;21.50;39.02;102109.47;10468981;28;20040;-76
2022/06/13 14:32:02;;;;;;;3.38;1.10;;;;;;;21.31;37.97;102110.78;10482567;28;20414;-77
2022/06/13 14:37:04;;;;;;;5.07;1.05;;;;;;;21.56;41.68;102116.66;10464638;28;20423;-76
2022/06/13 14:42:07;;;;;;;3.13;1.20;;;;;;;22.10;38.07;102098.25;10470865;28;20613;-76
2022/06/13 14:47:21;;;;;;;4.78;2.70;;;;;;;21.88;37.97;102105.81;10500475;28;20044;-76
2022/06/13 14:52:28;;;;;;;6.55;1.58;;;;;;;21.63;37.77;102107.97;10484880;28;20048;-76
2022/06/13 14:57:28;;;;;;;4.63;1.45;;;;;;;21.87;38.88;102105.81;10472256;28;20045;-77
2022/06/13 15:02:30;;;;;;;5.50;1.40;;;;;;;21.17;38.30;102112.22;10474694;28;20049;-78
2022/06/13 15:07:52;;;;;;;4.95;1.40;;;;;;;20.53;39.83;102106.22;10401272;28;20045;-76
2022/06/13 15:12:53;;;;;;;5.43;1.63;;;;;;;19.75;41.00;102112.88;10442598;28;20048;-74
2022/06/13 15:17:55;;;;;;;8.48;1.85;;;;;;;19.54;41.28;102113.16;10404792;28;20049;-75
2022/06/13 15:23:04;;;;;;;6.47;1.95;;;;;;;19.43;43.40;102111.06;10441148;28;20054;-76
2022/06/13 15:28:06;;;;;;;4.07;1.20;;;;;;;19.68;42.25;102114.47;10467499;28;20531;-76
2022/06/13 15:33:27;;;;;;;7.78;2.80;;;;;;;19.52;40.36;102121.06;10396577;28;20068;-75
2022/06/13 15:38:30;;;;;;;3.08;1.23;;;;;;;19.26;42.18;102113.19;10462557;28;20043;-75
2022/06/13 15:43:42;;;;;;;6.80;2.03;;;;;;;18.97;41.09;102120.22;10436171;28;20127;-74
2022/06/13 15:48:43;;;;;;;9.18;2.92;;;;;;;18.75;39.67;102116.81;10424204;28;20041;-74
2022/06/13 15:53:43;;;;;;;3.95;1.98;;;;;;;18.78;42.55;102120.47;10406233;28;20120;-75
2022/06/13 15:58:45;;;;;;;7.03;1.52;;;;;;;18.33;41.94;102126.88;10414138;28;20044;-75
2022/06/13 16:03:45;;;;;;;5.00;1.60;;;;;;;18.23;41.08;102119.44;10408924;28;20090;-77
2022/06/13 16:08:47;;;;;;;4.18;1.33;;;;;;;18.32;40.96;102116.22;10437346;28;20105;-75
2022/06/13 16:13:55;;;;;;;8.03;2.40;;;;;;;18.24;41.38;102121.25;10419958;28;20515;-78
2022/06/13 16:18:56;;;;;;;6.95;3.28;;;;;;;18.19;42.16;102117.53;10445534;28;20040;-78
2022/06/13 16:24:04;;;;;;;9.23;2.60;;;;;;;18.15;41.01;102111.22;10466363;28;20029;-78
2022/06/13 16:29:05;;;;;;;5.65;1.70;;;;;;;17.80;42.39;102117.84;10481849;28;20059;-77
2022/06/13 16:34:06;;;;;;;5.47;1.77;;;;;;;18.01;43.80;102125.69;10402997;28;20388;-77
2022/06/13 16:39:18;;;;;;;9.95;1.80;;;;;;;17.98;42.53;102123.81;10431076;28;20393;-77
2022/06/13 16:44:30;;;;;;;6.03;1.98;;;;;;;18.03;43.17;102113.41;10474640;28;20075;-78
2022/06/13 16:49:30;;;;;;;6.47;1.73;;;;;;;17.90;44.89;102122.63;10490337;28;20177;-78
2022/06/13 16:54:39;;;;;;;8.18;2.58;;;;;;;17.85;44.37;102130.38;10492948;28;20115;-78
2022/06/13 16:59:59;;;;;;;6.70;1.60;;;;;;;17.65;44.71;102120.78;10414506;28;20037;-79
2022/06/13 17:04:59;;;;;;;6.32;1.42;;;;;;;17.53;46.23;102118.56;10423848;28;20503;-77
2022/06/13 17:10:10;;;;;;;7.13;1.90;;;;;;;17.39;45.32;102121.59;10435861;28;20041;-78
2022/06/13 17:15:11;;;;;;;4.85;1.33;;;;;;;17.30;45.98;102127.41;10463440;28;20052;-78
2022/06/13 17:20:12;;;;;;;4.95;2.17;;;;;;;17.16;45.83;102123.28;10456395;28;20496;-79
2022/06/13 17:25:14;;;;;;;5.30;2.10;;;;;;;16.97;46.62;102117.25;10462562;28;20422;-78
2022/06/13 17:35:34;;;;;;;7.82;2.95;;;;;;;16.89;47.34;102126.56;10466335;28;20127;-78
2022/06/13 17:40:35;;;;;;;5.75;1.60;;;;;;;16.70;48.45;102127.56;10462830;28;20041;-78
2022/06/13 17:45:36;;;;;;;5.43;1.00;;;;;;;16.49;48.24;102123.16;10445071;28;20036;-79
2022/06/13 17:50:36;;;;;;;5.10;1.73;;;;;;;16.34;50.05;102130.41;10432650;28;20108;-78
2022/06/13 17:55:38;;;;;;;8.13;1.75;;;;;;;16.21;50.30;102127.22;10480041;28;20067;-76
2022/06/13 18:00:43;;;;;;;3.53;1.60;;;;;;;16.08;51.40;102120.47;10483397;28;20460;-76
2022/06/13 18:05:44;;;;;;;9.30;1.90;;;;;;;15.89;51.74;102134.59;10429479;28;20099;-76
2022/06/13 18:10:44;;;;;;;11.20;2.50;;;;;;;15.77;51.40;102139.28;10416130;28;20386;-75
2022/06/13 18:15:46;;;;;;;5.30;1.85;;;;;;;15.62;51.32;102147.34;10450631;28;20040;-75
2022/06/13 18:20:46;;;;;;;5.50;1.50;;;;;;;15.47;52.31;102153.72;10444384;28;20037;-75
2022/06/13 18:25:47;;;;;;;5.63;2.13;;;;;;;15.30;51.21;102152.91;10436758;28;20814;-76
2022/06/13 18:30:48;;;;;;;7.47;3.47;;;;;;;15.14;53.39;102159.16;10458631;28;20032;-76
2022/06/13 18:35:49;;;;;;;6.75;2.83;;;;;;;14.98;54.39;102166.28;10438388;28;20385;-77
2022/06/13 18:40:49;;;;;;;4.80;1.70;;;;;;;14.86;53.97;102162.16;10429614;28;20079;-76
2022/06/13 18:45:50;;;;;;;5.38;2.72;;;;;;;14.83;53.33;102158.53;10483966;28;20396;-77
2022/06/13 18:50:52;;;;;;;4.93;1.77;;;;;;;14.64;53.94;102159.25;10452850;28;20041;-77
2022/06/13 18:55:53;;;;;;;7.68;2.85;;;;;;;14.39;56.02;102163.25;10466813;28;20598;-78
2022/06/13 19:00:53;;;;;;;9.85;2.28;;;;;;;14.31;56.84;102166.31;10480268;28;20123;-77
2022/06/13 19:05:54;;;;;;;6.95;2.03;;;;;;;14.14;56.73;102160.13;10462365;28;20151;-77
2022/06/13 19:10:55;;;;;;;7.70;1.80;;;;;;;13.93;58.52;102150.25;10486848;28;20509;-76
2022/06/13 19:15:55;;;;;;;7.72;2.55;;;;;;;13.65;59.74;102164.53;10490806;28;20069;-76
2022/06/13 19:20:56;;;;;;;5.28;2.28;;;;;;;13.36;60.93;102171.66;10439176;28;20036;-76
2022/06/13 19:25:57;;;;;;;13.75;2.55;;;;;;;13.13;62.14;102178.22;10495087;28;20048;-77
2022/06/13 19:30:58;;;;;;;11.63;2.17;;;;;;;12.92;62.73;102179.66;10452706;28;20079;-77
2022/06/13 19:35:59;;;;;;;6.00;2.75;;;;;;;12.64;63.37;102192.91;10483938;28;20055;-76
2022/06/13 19:40:59;;;;;;;12.93;1.98;;;;;;;12.36;64.85;102195.53;10475264;28;20055;-76
2022/06/13 19:46:00;;;;;;;9.02;2.20;;;;;;;12.14;65.49;102205.63;10465078;28;20037;-76
2022/06/13 19:51:02;;;;;;;12.68;2.40;;;;;;;11.79;66.49;102198.09;10480113;28;20029;-79
2022/06/13 19:56:04;;;;;;;;;;;;;;;11.49;67.78;102221.53;10459670;28;20044;-79
2022/06/13 20:01:06;;;;;;;6.47;2.33;;;;;;;11.28;69.46;102217.59;10487065;28;19920;-79
2022/06/13 20:11:26;;;;;;;4.70;2.35;;;;;;;10.86;71.91;102227.00;10490849;28;20484;-78
2022/06/13 20:16:27;;;;;;;13.30;3.55;;;;;;;10.68;72.59;102229.25;10420691;28;20041;-79
2022/06/13 20:21:29;;;;;;;5.05;1.67;;;;;;;10.37;74.09;102235.88;10418817;28;20049;-79
2022/06/13 20:26:29;;;;;;;5.45;1.98;;;;;;;10.29;75.12;102237.03;10413825;28;20083;-79
2022/06/13 20:31:30;;;;;;;11.02;2.85;;;;;;;10.08;75.21;102236.41;10445924;28;20051;-79
2022/06/13 20:36:30;;;;;;;4.93;2.45;;;;;;;9.74;76.74;102233.97;10443019;28;20061;-78
2022/06/13 20:41:31;;;;;;;12.80;2.50;;;;;;;9.59;78.61;102245.09;10454266;28;20052;-79
2022/06/13 20:46:32;;;;;;;6.80;1.73;;;;;;;9.53;79.07;102245.59;10426182;28;20053;-80
2022/06/13 20:51:33;;;;;;;8.63;2.03;;;;;;;9.37;79.47;102250.47;10414193;28;20124;-78
2022/06/13 20:56:33;;;;;;;7.00;2.55;;;;;;;9.28;79.12;102247.16;10496825;28;20052;-80
2022/06/13 21:01:34;;;;;;;5.72;1.95;;;;;;;9.28;80.00;102240.22;10465578;28;20040;-80
2022/06/13 21:06:35;;;;;;;7.68;2.28;;;;;;;9.19;79.82;102234.28;10470408;28;20032;-79
2022/06/13 21:11:36;;;;;;;8.10;2.80;;;;;;;9.03;79.53;102230.53;10470051;28;20047;-79
2022/06/13 21:16:37;;;;;;;7.82;2.33;;;;;;;8.89;79.82;102232.09;10518499;28;20485;-79
2022/06/13 21:21:37;;;;;;;6.43;2.42;;;;;;;8.76;81.82;102245.00;10479781;28;20063;-78
2022/06/13 21:26:39;;;;;;;4.45;1.98;;;;;;;8.58;82.34;102234.97;10465764;28;20124;-78
2022/06/13 21:31:41;;;;;;;5.88;2.55;;;;;;;8.50;83.72;102241.28;10464755;28;20485;-78
2022/06/13 21:36:42;;;;;;;9.37;4.40;;;;;;;8.40;84.05;102239.59;10448461;28;20093;-78
2022/06/13 21:41:42;;;;;;;9.32;5.20;;;;;;;8.40;84.87;102246.53;10462964;28;20558;-78
2022/06/13 21:46:43;;;;;;;15.80;9.50;;;;;;;8.34;84.44;102250.50;10426203;28;20041;-78
2022/06/13 21:51:43;;;;;;;29.05;17.42;;;;;;;8.17;85.31;102246.53;10430715;28;20037;-78
2022/06/13 21:56:45;;;;;;;44.50;22.15;;;;;;;8.02;85.17;102250.50;10438388;28;20181;-78
2022/06/13 22:01:46;;;;;;;29.63;21.63;;;;;;;7.82;86.02;102244.59;10431653;28;20076;-77
2022/06/13 22:06:47;;;;;;;26.80;18.80;;;;;;;7.73;86.81;102246.47;10426441;28;20033;-78
2022/06/13 22:11:48;;;;;;;22.67;17.40;;;;;;;7.69;88.12;102244.41;10482821;28;20047;-77
2022/06/13 22:16:48;;;;;;;23.95;16.73;;;;;;;7.55;88.55;102249.38;10389393;28;20084;-78
2022/06/13 22:21:49;;;;;;;16.08;10.52;;;;;;;7.51;89.15;102249.94;10439298;28;20060;-77
2022/06/13 22:26:49;;;;;;;15.63;9.18;;;;;;;7.41;89.10;102248.28;10448488;28;20120;-78
2022/06/13 22:31:50;;;;;;;14.55;7.22;;;;;;;7.34;90.10;102231.22;10479498;28;20128;-78
2022/06/13 22:36:51;;;;;;;14.35;6.78;;;;;;;7.30;90.78;102243.88;10464697;28;20059;-78
2022/06/13 22:41:52;;;;;;;13.05;6.22;;;;;;;7.29;90.30;102247.25;10481916;28;20043;-78
2022/06/13 22:52:19;;;;;;;18.35;5.68;;;;;;;7.17;90.52;102239.31;10426323;28;20044;-78
2022/06/13 22:57:20;;;;;;;11.98;5.20;;;;;;;7.19;91.01;102242.97;10414003;28;20087;-79
2022/06/13 23:02:21;;;;;;;13.07;5.38;;;;;;;7.08;91.05;102252.50;10397099;28;20572;-80
2022/06/13 23:07:22;;;;;;;13.52;5.13;;;;;;;6.97;91.01;102258.47;10430755;28;20072;-79
2022/06/13 23:12:23;;;;;;;10.50;5.65;;;;;;;6.80;90.77;102255.34;10477785;28;20111;-80
2022/06/13 23:17:23;;;;;;;11.93;6.00;;;;;;;6.62;90.90;102254.69;10488491;28;20040;-79
2022/06/13 23:22:23;;;;;;;8.50;5.47;;;;;;;6.47;91.03;102254.28;10403463;28;20068;-80
2022/06/13 23:27:24;;;;;;;10.77;6.45;;;;;;;6.53;93.50;102257.41;10488167;28;20532;-79
2022/06/13 23:32:25;;;;;;;11.07;5.30;;;;;;;6.64;94.68;102260.03;10396281;28;20086;-79
2022/06/13 23:37:25;;;;;;;13.50;4.75;;;;;;;6.62;94.00;102257.28;10378082;28;20097;-79
2022/06/13 23:42:26;;;;;;;10.95;5.68;;;;;;;6.44;92.60;102260.13;10477320;28;20040;-79
2022/06/13 23:47:27;;;;;;;10.15;6.95;;;;;;;6.29;93.58;102271.78;10468612;28;20127;-79
2022/06/13 23:52:27;;;;;;;9.50;4.68;;;;;;;6.34;95.10;102275.69;10427233;28;20040;-79
2022/06/13 23:57:28;;;;;;;14.02;5.60;;;;;;;6.38;95.14;102272.59;10475905;28;20079;-79
